createdAt,value
2022-11-12T00:01:20.240Z,22.50
2022-11-12T00:03:48.590Z,22.63
2022-11-12T00:06:16.884Z,21.98
2022-11-12T00:08:46.368Z,23.42
2022-11-12T00:11:14.650Z,22.15
2022-11-12T00:13:43.128Z,22.20
2022-11-12T00:16:11.261Z,20.35
2022-11-12T00:18:39.473Z,20.55
2022-11-12T00:21:07.864Z,20.63
2022-11-12T00:23:35.979Z,21.02
2022-11-12T00:26:05.987Z,20.67
2022-11-12T00:28:38.037Z,22.02
2022-11-12T00:31:12.310Z,22.73
2022-11-12T00:33:44.255Z,23.63
2022-11-12T00:36:13.194Z,22.58
2022-11-12T00:38:41.408Z,22.10
2022-11-12T00:41:11.035Z,23.67
2022-11-12T00:43:39.240Z,23.65
2022-11-12T00:46:07.399Z,23.15
2022-11-12T00:48:35.557Z,22.77
2022-11-12T00:51:05.165Z,24.02
2022-11-12T00:53:33.682Z,24.15
2022-11-12T00:56:03.137Z,23.25
2022-11-12T00:58:34.117Z,24.00
2022-11-12T01:01:09.098Z,23.15
2022-11-12T01:03:37.619Z,25.77
2022-11-12T01:06:08.022Z,24.88
2022-11-12T01:08:36.312Z,24.92
2022-11-12T01:11:09.734Z,25.55
2022-11-12T01:13:44.197Z,24.42
2022-11-12T01:16:15.846Z,24.17
2022-11-12T01:18:44.399Z,24.05
2022-11-12T01:21:12.700Z,23.45
2022-11-12T01:23:42.296Z,23.90
2022-11-12T01:26:12.392Z,23.63
2022-11-12T01:28:42.762Z,22.17
2022-11-12T01:31:16.013Z,22.67
2022-11-12T01:33:45.157Z,22.75
2022-11-12T01:36:13.929Z,22.13
2022-11-12T01:38:44.285Z,21.85
2022-11-12T01:41:14.749Z,21.10
2022-11-12T01:43:44.670Z,19.77
2022-11-12T01:46:20.564Z,18.50
2022-11-12T01:48:51.947Z,19.23
2022-11-12T01:51:22.047Z,18.95
2022-11-12T01:53:56.038Z,17.10
2022-11-12T01:56:27.328Z,18.55
2022-11-12T01:59:01.464Z,19.23
2022-11-12T02:01:29.970Z,18.17
2022-11-12T02:03:58.434Z,18.45
2022-11-12T02:06:26.628Z,18.70
2022-11-12T02:08:55.274Z,18.52
2022-11-12T02:11:23.768Z,19.00
2022-11-12T02:13:58.893Z,18.27
2022-11-12T02:16:31.461Z,18.17
2022-11-12T02:18:59.844Z,19.08
2022-11-12T02:21:30.408Z,18.23
2022-11-12T02:23:59.971Z,17.13
2022-11-12T02:26:32.976Z,17.65
2022-11-12T02:29:01.356Z,18.38
2022-11-12T02:31:29.664Z,18.17
2022-11-12T02:33:57.991Z,17.40
2022-11-12T02:36:26.510Z,17.77
2022-11-12T02:38:56.810Z,18.15
2022-11-12T02:41:25.162Z,17.80
2022-11-12T02:43:53.366Z,19.00
2022-11-12T02:46:21.640Z,17.52
2022-11-12T02:48:50.052Z,18.27
2022-11-12T02:51:18.386Z,18.88
2022-11-12T02:53:46.519Z,17.33
2022-11-12T02:56:16.531Z,17.08
2022-11-12T02:58:44.659Z,16.23
2022-11-12T03:01:12.837Z,17.15
2022-11-12T03:03:41.290Z,18.00
2022-11-12T03:06:09.729Z,17.38
2022-11-12T03:08:37.819Z,16.15
2022-11-12T03:11:10.683Z,16.77
2022-11-12T03:13:40.785Z,17.33
2022-11-12T03:16:09.651Z,15.95
2022-11-12T03:18:38.677Z,17.75
2022-11-12T03:21:07.269Z,16.52
2022-11-12T03:23:35.437Z,17.33
2022-11-12T03:26:05.122Z,16.58
2022-11-12T03:28:33.715Z,17.42
2022-11-12T03:31:03.317Z,16.90
2022-11-12T03:33:32.073Z,16.88
2022-11-12T03:36:00.216Z,17.00
2022-11-12T03:38:28.746Z,15.95
2022-11-12T03:40:57.419Z,17.17
2022-11-12T03:43:25.709Z,16.27
2022-11-12T03:45:53.818Z,16.92
2022-11-12T03:48:23.972Z,15.30
2022-11-12T03:50:52.463Z,15.55
2022-11-12T03:53:20.714Z,15.25
2022-11-12T03:55:48.978Z,16.23
2022-11-12T03:58:17.442Z,15.23
2022-11-12T04:00:46.062Z,15.32
2022-11-12T04:03:14.517Z,15.52
2022-11-12T04:06:15.715Z,16.23
2022-11-12T04:08:44.645Z,16.65
2022-11-12T04:11:14.607Z,17.13
2022-11-12T04:13:42.668Z,17.00
2022-11-12T04:16:30.508Z,14.18
2022-11-12T04:19:17.913Z,14.38
2022-11-12T04:21:54.794Z,17.90
2022-11-12T04:24:43.360Z,16.52
2022-11-12T04:27:14.033Z,15.23
2022-11-12T04:30:00.497Z,13.93
2022-11-12T04:32:29.575Z,16.52
2022-11-12T04:34:58.277Z,16.15
2022-11-12T04:37:30.381Z,15.57
2022-11-12T04:40:19.947Z,17.55
2022-11-12T04:43:06.659Z,16.67
2022-11-12T04:45:35.351Z,16.38
2022-11-12T04:48:03.749Z,15.52
2022-11-12T04:50:32.312Z,16.63
2022-11-12T04:53:02.034Z,16.02
2022-11-12T04:55:30.500Z,16.35
2022-11-12T04:58:00.784Z,16.27
2022-11-12T05:00:29.435Z,17.40
2022-11-12T05:02:57.790Z,20.35
2022-11-12T05:05:29.760Z,17.85
2022-11-12T05:08:03.769Z,18.02
2022-11-12T05:10:32.735Z,17.05
2022-11-12T05:13:01.172Z,17.10
2022-11-12T05:15:29.458Z,16.73
2022-11-12T05:17:57.822Z,16.60
2022-11-12T05:20:26.080Z,16.85
2022-11-12T05:23:06.037Z,18.08
2022-11-12T05:25:37.287Z,17.67
2022-11-12T05:28:07.015Z,16.85
2022-11-12T05:30:36.222Z,16.05
2022-11-12T05:33:04.783Z,15.43
2022-11-12T05:35:33.310Z,14.85
2022-11-12T05:38:01.390Z,15.98
2022-11-12T05:40:29.564Z,16.17
2022-11-12T05:42:59.229Z,14.63
2022-11-12T05:45:27.297Z,15.48
2022-11-12T05:47:55.794Z,15.40
2022-11-12T05:50:24.053Z,14.63
2022-11-12T05:52:52.142Z,40.35
2022-11-12T05:55:20.546Z,38.63
2022-11-12T05:57:48.899Z,24.95
2022-11-12T06:00:19.172Z,23.63
2022-11-12T06:02:47.449Z,31.20
2022-11-12T06:05:15.902Z,49.65
2022-11-12T06:07:44.031Z,74.15
2022-11-12T06:10:16.112Z,49.45
2022-11-12T06:12:47.655Z,29.42
2022-11-12T06:15:16.103Z,22.75
2022-11-12T06:17:45.876Z,22.13
2022-11-12T06:20:14.490Z,21.80
2022-11-12T06:22:42.770Z,18.95
2022-11-12T06:25:10.925Z,16.65
2022-11-12T06:27:39.060Z,16.10
2022-11-12T06:30:09.253Z,15.80
2022-11-12T06:32:37.744Z,14.90
2022-11-12T06:35:08.299Z,14.35
2022-11-12T06:37:36.572Z,15.07
2022-11-12T06:40:05.550Z,13.82
2022-11-12T06:42:34.241Z,14.85
2022-11-12T06:45:02.749Z,14.35
2022-11-12T06:47:30.872Z,13.88
2022-11-12T06:49:59.439Z,14.30
2022-11-12T06:52:29.026Z,15.75
2022-11-12T06:54:57.374Z,15.98
2022-11-12T06:57:25.699Z,15.70
2022-11-12T06:59:54.012Z,17.95
2022-11-12T07:02:22.369Z,17.33
2022-11-12T07:04:50.445Z,18.55
2022-11-12T07:07:18.869Z,18.20
2022-11-12T07:09:48.554Z,17.30
2022-11-12T07:12:16.760Z,18.17
2022-11-12T07:14:45.027Z,19.08
2022-11-12T07:17:13.391Z,17.52
2022-11-12T07:19:41.452Z,17.08
2022-11-12T07:22:09.824Z,17.08
2022-11-12T07:24:38.136Z,16.45
2022-11-12T07:27:07.720Z,16.88
2022-11-12T07:29:47.543Z,15.60
2022-11-12T07:32:16.705Z,15.75
2022-11-12T07:34:45.029Z,14.90
2022-11-12T07:37:13.174Z,13.30
2022-11-12T07:39:41.318Z,13.07
2022-11-12T07:42:10.954Z,13.40
2022-11-12T07:44:39.062Z,12.40
2022-11-12T07:47:07.288Z,11.15
2022-11-12T07:49:35.553Z,10.32
2022-11-12T07:52:03.682Z,9.82
2022-11-12T07:54:32.019Z,9.25
2022-11-12T07:57:00.320Z,9.05
2022-11-12T07:59:29.753Z,9.32
2022-11-12T08:01:58.210Z,8.40
2022-11-12T08:04:26.376Z,8.15
2022-11-12T08:06:54.611Z,7.97
2022-11-12T08:09:22.937Z,8.43
2022-11-12T08:11:51.164Z,8.50
2022-11-12T08:14:19.243Z,7.93
2022-11-12T08:16:49.525Z,7.80
2022-11-12T08:19:17.758Z,7.18
2022-11-12T08:21:45.847Z,7.00
2022-11-12T08:24:14.226Z,7.05
2022-11-12T08:26:42.509Z,7.53
2022-11-12T08:29:10.709Z,7.28
2022-11-12T08:31:39.044Z,7.60
2022-11-12T08:34:19.954Z,7.03
2022-11-12T08:36:50.652Z,7.05
2022-11-12T08:39:18.888Z,7.18
2022-11-12T08:41:47.042Z,6.85
2022-11-12T08:44:15.853Z,6.53
2022-11-12T08:46:44.087Z,6.65
2022-11-12T08:49:13.577Z,6.72
2022-11-12T08:51:41.963Z,6.85
2022-11-12T08:54:10.359Z,6.75
2022-11-12T08:56:38.513Z,7.20
2022-11-12T08:59:07.611Z,6.85
2022-11-12T09:01:36.222Z,7.20
2022-11-12T09:04:04.690Z,7.15
2022-11-12T09:06:34.538Z,7.55
2022-11-12T09:09:02.769Z,7.43
2022-11-12T09:11:31.028Z,7.30
2022-11-12T09:13:59.321Z,7.38
2022-11-12T09:16:27.627Z,7.50
2022-11-12T09:18:55.822Z,8.18
2022-11-12T09:21:24.932Z,7.97
2022-11-12T09:23:55.764Z,8.48
2022-11-12T09:26:23.925Z,7.78
2022-11-12T09:28:52.480Z,7.70
2022-11-12T09:31:21.003Z,8.50
2022-11-12T09:33:49.175Z,8.23
2022-11-12T09:36:18.326Z,9.63
2022-11-12T09:38:46.442Z,9.38
2022-11-12T09:41:29.610Z,11.10
2022-11-12T09:44:02.336Z,10.65
2022-11-12T09:46:36.137Z,10.17
2022-11-12T09:49:08.864Z,9.75
2022-11-12T09:51:40.526Z,9.50
2022-11-12T09:54:20.311Z,8.88
2022-11-12T09:56:50.518Z,9.00
2022-11-12T09:59:19.262Z,9.88
2022-11-12T10:02:08.673Z,9.18
2022-11-12T10:04:58.043Z,9.70
2022-11-12T10:07:38.349Z,12.05
2022-11-12T10:10:14.467Z,9.85
2022-11-12T10:12:55.728Z,9.82
2022-11-12T10:16:06.280Z,9.15
2022-11-12T10:18:47.105Z,9.45
2022-11-12T10:21:21.660Z,10.23
2022-11-12T10:23:53.687Z,9.90
2022-11-12T10:26:23.880Z,10.55
2022-11-12T10:29:00.471Z,9.77
2022-11-12T10:31:28.650Z,9.60
2022-11-12T10:34:15.287Z,9.90
2022-11-12T10:36:47.838Z,10.52
2022-11-12T10:39:35.051Z,10.15
2022-11-12T10:42:14.224Z,9.65
2022-11-12T10:44:44.417Z,9.77
2022-11-12T10:47:26.112Z,10.52
2022-11-12T10:50:19.910Z,11.00
2022-11-12T10:53:00.160Z,10.23
2022-11-12T10:55:29.906Z,10.00
2022-11-12T10:58:20.977Z,10.48
2022-11-12T11:01:02.715Z,10.20
2022-11-12T11:03:34.831Z,10.35
2022-11-12T11:06:05.021Z,11.07
2022-11-12T11:08:41.499Z,9.93
2022-11-12T11:11:28.218Z,9.35
2022-11-12T11:13:57.912Z,9.73
2022-11-12T11:16:29.411Z,9.70
2022-11-12T11:18:59.731Z,9.93
2022-11-12T11:21:49.214Z,10.23
2022-11-12T11:24:29.357Z,10.10
2022-11-12T11:27:04.012Z,10.30
2022-11-12T11:29:48.340Z,11.48
2022-11-12T11:32:37.222Z,11.23
2022-11-12T11:35:15.970Z,11.38
2022-11-12T11:38:03.324Z,11.60
2022-11-12T11:40:36.902Z,11.50
2022-11-12T11:43:37.787Z,10.98
2022-11-12T11:46:15.256Z,11.02
2022-11-12T11:48:58.982Z,10.98
2022-11-12T11:51:41.672Z,11.50
2022-11-12T11:54:22.485Z,11.15
2022-11-12T11:56:53.054Z,10.27
2022-11-12T11:59:42.971Z,10.88
2022-11-12T12:02:45.185Z,10.85
2022-11-12T12:05:30.628Z,10.43
2022-11-12T12:08:04.559Z,10.32
2022-11-12T12:13:55.581Z,10.98
2022-11-12T12:16:32.680Z,10.90
2022-11-12T12:19:10.116Z,10.35
2022-11-12T12:21:42.995Z,10.88
2022-11-12T12:24:18.575Z,10.52
2022-11-12T12:26:49.900Z,11.10
2022-11-12T12:29:24.047Z,10.68
2022-11-12T12:31:56.745Z,11.05
2022-11-12T12:34:29.154Z,10.83
2022-11-12T12:37:06.344Z,11.43
2022-11-12T12:39:48.124Z,10.50
2022-11-12T12:42:21.718Z,10.70
2022-11-12T12:45:04.910Z,10.68
2022-11-12T12:47:39.556Z,9.90
2022-11-12T12:50:13.891Z,10.73
2022-11-12T12:53:03.356Z,10.52
2022-11-12T12:55:43.688Z,10.40
2022-11-12T12:58:27.234Z,11.00
2022-11-12T13:01:02.772Z,11.00
2022-11-12T13:04:00.105Z,10.10
2022-11-12T13:06:33.147Z,10.38
2022-11-12T13:09:05.941Z,10.55
2022-11-12T13:12:12.434Z,10.13
2022-11-12T13:14:53.406Z,10.32
2022-11-12T13:17:44.548Z,9.95
2022-11-12T13:20:37.444Z,10.00
2022-11-12T13:23:54.207Z,10.45
2022-11-12T13:26:59.028Z,9.85
2022-11-12T13:29:43.033Z,9.50
2022-11-12T13:32:45.031Z,10.27
2022-11-12T13:35:36.148Z,10.02
2022-11-12T13:38:13.419Z,10.15
2022-11-12T13:40:45.499Z,11.63
2022-11-12T13:43:32.878Z,10.20
2022-11-12T13:46:21.620Z,9.32
2022-11-12T13:48:53.886Z,10.30
2022-11-12T13:51:29.607Z,10.50
2022-11-12T13:53:58.260Z,10.75
2022-11-12T13:56:30.232Z,11.00
2022-11-12T13:59:14.432Z,10.40
2022-11-12T14:01:44.837Z,10.80
2022-11-12T14:04:16.440Z,10.27
2022-11-12T14:06:46.689Z,11.70
2022-11-12T14:09:27.418Z,11.00
2022-11-12T14:12:21.503Z,11.13
2022-11-12T14:15:04.849Z,10.88
2022-11-12T14:17:42.394Z,11.40
2022-11-12T14:20:26.242Z,10.48
2022-11-12T14:22:55.464Z,11.05
2022-11-12T14:25:26.048Z,11.55
2022-11-12T14:27:55.317Z,10.30
2022-11-12T14:30:25.648Z,10.85
2022-11-12T14:32:59.853Z,10.50
2022-11-12T14:35:35.303Z,11.32
2022-11-12T14:38:16.989Z,11.27
2022-11-12T14:40:49.187Z,10.95
2022-11-12T14:43:37.957Z,10.77
2022-11-12T14:46:08.137Z,11.05
2022-11-12T14:48:48.557Z,9.85
2022-11-12T14:51:17.763Z,10.18
2022-11-12T14:53:55.542Z,9.98
2022-11-12T14:56:35.143Z,9.93
2022-11-12T14:59:05.120Z,9.90
2022-11-12T15:02:14.274Z,10.45
2022-11-12T15:04:26.249Z,8.98
2022-11-12T15:06:55.833Z,9.15
2022-11-12T15:09:35.949Z,9.85
2022-11-12T15:12:06.228Z,10.68
2022-11-12T15:14:35.468Z,10.23
2022-11-12T15:17:05.757Z,9.60
2022-11-12T15:19:36.721Z,9.52
2022-11-12T15:22:06.242Z,10.18
2022-11-12T15:24:36.255Z,9.43
2022-11-12T15:27:35.898Z,9.32
2022-11-12T15:30:17.484Z,11.73
2022-11-12T15:32:46.051Z,13.95
2022-11-12T15:35:37.750Z,13.50
2022-11-12T15:38:12.113Z,12.38
2022-11-12T15:40:45.645Z,11.02
2022-11-12T15:43:17.801Z,12.43
2022-11-12T15:45:49.625Z,12.43
2022-11-12T15:48:17.940Z,14.80
2022-11-12T15:50:48.289Z,15.38
2022-11-12T15:53:16.904Z,15.35
2022-11-12T15:55:46.388Z,12.73
2022-11-12T15:58:18.635Z,14.35
2022-11-12T16:00:47.099Z,15.50
2022-11-12T16:03:17.207Z,15.80
2022-11-12T16:05:47.518Z,16.77
2022-11-12T16:08:16.040Z,12.52
2022-11-12T16:10:46.347Z,12.02
2022-11-12T16:13:17.995Z,11.60
2022-11-12T16:15:46.334Z,12.15
2022-11-12T16:18:14.598Z,11.98
2022-11-12T16:20:43.016Z,11.52
2022-11-12T16:23:12.547Z,11.68
2022-11-12T16:25:43.000Z,11.93
2022-11-12T16:28:15.430Z,12.43
2022-11-12T16:30:44.781Z,12.18
2022-11-12T16:33:14.373Z,11.93
2022-11-12T16:35:42.947Z,13.77
2022-11-12T16:38:15.828Z,14.40
2022-11-12T16:40:45.267Z,14.48
2022-11-12T16:43:13.425Z,15.13
2022-11-12T16:45:44.148Z,14.73
2022-11-12T16:48:17.007Z,15.10
2022-11-12T16:50:45.262Z,14.18
2022-11-12T16:53:14.835Z,14.52
2022-11-12T16:55:43.265Z,22.90
2022-11-12T16:58:14.982Z,20.52
2022-11-12T17:00:45.218Z,19.70
2022-11-12T17:03:13.951Z,35.88
2022-11-12T17:05:42.092Z,25.05
2022-11-12T17:08:11.445Z,21.27
2022-11-12T17:10:41.161Z,19.27
2022-11-12T17:13:13.110Z,18.20
2022-11-12T17:15:41.364Z,19.73
2022-11-12T17:18:10.349Z,19.08
2022-11-12T17:20:38.697Z,19.77
2022-11-12T17:23:06.977Z,18.63
2022-11-12T17:25:35.098Z,21.77
2022-11-12T17:28:04.915Z,21.15
2022-11-12T17:30:33.196Z,21.48
2022-11-12T17:33:01.430Z,20.67
2022-11-12T17:35:29.769Z,21.95
2022-11-12T17:37:58.109Z,20.10
2022-11-12T17:40:26.350Z,24.83
2022-11-12T17:42:54.979Z,22.60
2022-11-12T17:45:24.616Z,20.80
2022-11-12T17:47:53.118Z,20.52
2022-11-12T17:50:21.257Z,20.25
2022-11-12T17:52:49.975Z,18.77
2022-11-12T17:55:18.477Z,19.45
2022-11-12T17:57:46.621Z,20.80
2022-11-12T18:00:16.673Z,19.80
2022-11-12T18:02:46.253Z,19.20
2022-11-12T18:05:14.369Z,20.25
2022-11-12T18:07:42.759Z,20.40
2022-11-12T18:10:14.429Z,19.77
2022-11-12T18:12:45.456Z,19.25
2022-11-12T18:15:14.101Z,19.65
2022-11-12T18:17:42.391Z,20.10
2022-11-12T18:20:12.631Z,19.38
2022-11-12T18:22:44.891Z,21.13
2022-11-12T18:25:14.263Z,21.73
2022-11-12T18:27:42.420Z,21.35
2022-11-12T18:30:16.378Z,22.40
2022-11-12T18:32:47.706Z,28.48
2022-11-12T18:35:17.390Z,63.85
2022-11-12T18:37:45.900Z,34.05
2022-11-12T18:40:14.279Z,23.60
2022-11-12T18:42:42.487Z,23.00
2022-11-12T18:45:11.374Z,22.23
2022-11-12T18:47:39.690Z,21.80
2022-11-12T18:50:09.056Z,21.98
2022-11-12T18:52:38.835Z,22.98
2022-11-12T18:55:08.424Z,21.63
2022-11-12T18:57:36.534Z,22.48
2022-11-12T19:00:05.576Z,20.80
2022-11-12T19:02:34.480Z,21.05
2022-11-12T19:05:02.634Z,21.17
2022-11-12T19:07:30.845Z,21.38
2022-11-12T19:10:01.647Z,19.80
2022-11-12T19:12:29.849Z,19.63
2022-11-12T19:14:57.941Z,19.27
2022-11-12T19:17:30.610Z,20.85
2022-11-12T19:19:59.397Z,19.70
2022-11-12T19:22:28.014Z,19.63
2022-11-12T19:24:56.313Z,18.73
2022-11-12T19:27:25.831Z,17.40
2022-11-12T19:29:58.538Z,18.17
2022-11-12T19:32:30.661Z,18.35
2022-11-12T19:34:58.991Z,17.20
2022-11-12T19:37:33.583Z,18.45
2022-11-12T19:40:02.878Z,19.08
2022-11-12T19:42:32.421Z,18.65
2022-11-12T19:45:00.527Z,19.00
2022-11-12T19:47:29.068Z,20.20
2022-11-12T19:49:57.218Z,17.40
2022-11-12T19:52:26.389Z,17.67
2022-11-12T19:54:54.804Z,17.60
2022-11-12T19:57:23.017Z,19.85
2022-11-12T19:59:52.473Z,18.75
2022-11-12T20:02:21.071Z,19.27
2022-11-12T20:04:49.244Z,20.63
2022-11-12T20:07:17.553Z,20.58
2022-11-12T20:09:46.320Z,20.65
2022-11-12T20:12:14.484Z,21.80
2022-11-12T20:14:42.610Z,23.95
2022-11-12T20:17:12.385Z,24.55
2022-11-12T20:19:40.497Z,24.70
2022-11-12T20:22:08.979Z,25.00
2022-11-12T20:24:37.283Z,24.23
2022-11-12T20:27:06.145Z,24.98
2022-11-12T20:29:34.291Z,25.23
2022-11-12T20:32:02.675Z,22.95
2022-11-12T20:34:32.185Z,24.45
2022-11-12T20:37:00.346Z,26.45
2022-11-12T20:39:28.424Z,27.67
2022-11-12T20:41:57.091Z,24.77
2022-11-12T20:44:25.237Z,26.67
2022-11-12T20:46:53.354Z,25.60
2022-11-12T20:49:21.689Z,26.55
2022-11-12T20:51:51.277Z,25.17
2022-11-12T20:54:20.862Z,24.05
2022-11-12T20:56:50.824Z,24.80
2022-11-12T20:59:19.035Z,24.10
2022-11-12T21:01:47.602Z,23.60
2022-11-12T21:04:16.376Z,23.63
2022-11-12T21:06:44.903Z,21.38
2022-11-12T21:09:14.482Z,21.95
2022-11-12T21:11:43.040Z,22.75
2022-11-12T21:14:12.383Z,21.83
2022-11-12T21:16:40.707Z,20.38
2022-11-12T21:19:09.073Z,21.25
2022-11-12T21:21:38.464Z,22.60
2022-11-12T21:24:07.421Z,22.52
2022-11-12T21:26:37.338Z,22.17
2022-11-12T21:29:07.127Z,21.95
2022-11-12T21:31:35.265Z,22.63
2022-11-12T21:34:04.822Z,22.23
2022-11-12T21:36:35.509Z,23.17
2022-11-12T21:39:04.554Z,21.98
2022-11-12T21:41:33.104Z,23.10
2022-11-12T21:44:02.591Z,22.77
2022-11-12T21:46:33.032Z,22.75
2022-11-12T21:49:01.209Z,84.00
2022-11-12T21:51:31.226Z,48.70
2022-11-12T21:54:01.239Z,23.35
2022-11-12T21:56:30.162Z,21.20
2022-11-12T21:59:00.533Z,19.67
2022-11-12T22:01:32.921Z,19.10
2022-11-12T22:04:01.334Z,20.40
2022-11-12T22:06:30.893Z,25.23
2022-11-12T22:08:59.622Z,23.30
2022-11-12T22:11:28.279Z,23.60
2022-11-12T22:13:56.452Z,23.38
2022-11-12T22:16:26.457Z,24.15
2022-11-12T22:18:57.510Z,21.88
2022-11-12T22:21:27.640Z,24.85
2022-11-12T22:23:56.962Z,23.88
2022-11-12T22:26:27.214Z,25.70
2022-11-12T22:28:56.887Z,29.20
2022-11-12T22:31:27.031Z,28.00
2022-11-12T22:33:58.318Z,27.75
2022-11-12T22:36:28.604Z,26.45
2022-11-12T22:38:57.589Z,27.38
2022-11-12T22:41:27.888Z,29.23
2022-11-12T22:43:58.125Z,29.48
2022-11-12T22:46:27.690Z,28.95
2022-11-12T22:48:59.287Z,27.27
2022-11-12T22:51:30.769Z,27.98
2022-11-12T22:54:00.973Z,28.13
2022-11-12T22:56:29.698Z,28.35
2022-11-12T22:58:58.923Z,25.02
2022-11-12T23:01:29.169Z,28.05
2022-11-12T23:04:00.445Z,29.90
2022-11-12T23:06:29.993Z,30.40
2022-11-12T23:09:00.041Z,29.55
2022-11-12T23:11:28.466Z,29.10
2022-11-12T23:13:57.325Z,28.75
2022-11-12T23:16:27.404Z,28.60
2022-11-12T23:18:55.870Z,28.02
2022-11-12T23:21:27.869Z,28.08
2022-11-12T23:23:57.974Z,29.33
2022-11-12T23:26:28.819Z,29.35
2022-11-12T23:28:56.995Z,27.58
2022-11-12T23:31:26.992Z,26.15
2022-11-12T23:33:56.520Z,27.48
2022-11-12T23:36:27.530Z,26.23
2022-11-12T23:38:56.134Z,28.30
2022-11-12T23:41:27.157Z,27.92
2022-11-12T23:43:56.874Z,31.95
2022-11-12T23:46:25.651Z,35.90
2022-11-12T23:48:54.251Z,30.95
2022-11-12T23:51:23.447Z,30.75
2022-11-12T23:53:52.958Z,29.95
2022-11-12T23:56:21.284Z,28.52
2022-11-12T23:58:49.420Z,28.30
